CheckWX is a tool to help pilots better visualize weather data.  It is not intended as a substitute for an official pre-flight weather briefing.

20:33:12 UTC

LIBV TAF
Gioia Del Colle Airport
Gioia Del Colle, Italy
TAF LIBV 221700Z 2218/2303 35008KT 6000 NSC

Mar-22@
18:00 UTC

Mar-22 @ 18:00 UTC

Mar-23@
03:00 UTC

Mar-23 @ 03:00 UTC

TAF LIBV 221700Z 2218/2303 35008KT 6000 NSC
Wind
  • 350° at 8 KTS
Cloud Levels
  • No significant clouds